Time;durP1;ratioP1;P1;durP2;ratioP2;P2;SDS_P1;SDS_P2;PMS_P1;PMS_P2;Temp;Humidity;BMP_temperature;BMP_pressure;BME280_temperature;BME280_humidity;BME280_pressure;Samples;Min_cycle;Max_cycle;Signal;HPM_P1;HPM_P2
2024/03/26 00:02:23;;;;;;;;;6.25;6.25;;;;;12.93;52.74;98802.34;5080564;27;45468;-62
2024/03/26 00:04:49;;;;;;;;;9.00;8.00;;;;;12.97;52.54;98802.03;5080922;27;45366;-63
2024/03/26 00:07:14;;;;;;;;;6.00;6.00;;;;;12.86;52.47;98777.00;5080637;27;45654;-63
2024/03/26 00:09:39;;;;;;;;;6.50;6.00;;;;;12.98;52.29;98798.41;5080711;27;45448;-62
2024/03/26 00:12:05;;;;;;;;;8.00;7.00;;;;;13.04;52.51;98799.75;5080579;28;45286;-62
2024/03/26 00:14:30;;;;;;;;;7.25;6.00;;;;;12.79;52.44;98768.56;5080712;27;45301;-63
2024/03/26 00:16:56;;;;;;;;;9.25;8.00;;;;;12.81;52.49;98774.66;5080258;27;45578;-62
2024/03/26 00:19:21;;;;;;;;;5.50;5.50;;;;;12.75;52.64;98769.78;5080517;27;46394;-62
2024/03/26 00:21:46;;;;;;;;;8.00;6.25;;;;;12.99;52.83;98812.63;5080299;28;45357;-63
2024/03/26 00:24:12;;;;;;;;;7.50;7.50;;;;;12.96;53.08;98810.16;5080660;27;45263;-63
2024/03/26 00:26:37;;;;;;;;;9.00;8.75;;;;;12.86;52.84;98785.88;5080063;28;45280;-63
2024/03/26 00:29:03;;;;;;;;;7.75;7.00;;;;;12.90;53.20;98797.25;5079706;28;45290;-63
2024/03/26 00:31:33;;;;;;;;;9.50;9.00;;;;;12.77;53.06;98776.69;5080182;27;45289;-63
2024/03/26 00:34:03;;;;;;;;;8.25;8.25;;;;;12.93;52.99;98803.22;5080545;27;45413;-62
2024/03/26 00:36:31;;;;;;;;;7.50;7.00;;;;;12.90;53.08;98798.09;5080120;27;45251;-63
2024/03/26 00:38:57;;;;;;;;;7.00;7.00;;;;;12.81;53.29;98776.47;5080202;28;45378;-63
2024/03/26 00:41:22;;;;;;;;;7.00;6.75;;;;;12.84;53.07;98781.63;5080013;27;45390;-63
2024/03/26 00:43:47;;;;;;;;;6.00;5.25;;;;;12.90;53.43;98795.41;5080195;27;45806;-63
2024/03/26 00:46:12;;;;;;;;;9.25;6.00;;;;;12.73;53.27;98763.66;5078328;28;45634;-63
2024/03/26 00:48:38;;;;;;;;;8.25;8.25;;;;;12.71;53.52;98769.16;5083576;27;46872;-63
2024/03/26 00:51:03;;;;;;;;;9.75;9.00;;;;;12.87;53.10;98784.09;5078183;28;45384;-63
2024/03/26 00:53:29;;;;;;;;;7.50;6.75;;;;;12.73;53.57;98774.34;5080267;27;45354;-63
2024/03/26 00:55:54;;;;;;;;;5.50;5.50;;;;;12.87;53.52;98790.28;5078104;28;51423;-63
2024/03/26 00:58:19;;;;;;;;;9.00;8.00;;;;;12.70;54.21;98756.72;5079819;27;45564;-63
2024/03/26 01:00:45;;;;;;;;;8.00;8.00;;;;;12.86;53.55;98779.69;5079718;28;45429;-63
2024/03/26 01:03:10;;;;;;;;;7.00;6.00;;;;;12.88;53.93;98781.28;5079786;27;47749;-63
2024/03/26 01:05:35;;;;;;;;;8.00;6.50;;;;;12.67;53.65;98746.22;5079681;28;45389;-63
2024/03/26 01:08:01;;;;;;;;;8.00;8.00;;;;;12.92;53.69;98782.75;5079668;28;46495;-63
2024/03/26 01:10:26;;;;;;;;;8.50;8.00;;;;;12.76;53.76;98752.72;5095386;27;45292;-63
2024/03/26 01:12:51;;;;;;;;;10.00;7.25;;;;;12.68;53.69;98737.25;5079693;27;45418;-63
2024/03/26 01:15:17;;;;;;;;;8.00;7.00;;;;;12.73;53.98;98750.25;5079343;27;47827;-63
2024/03/26 01:17:42;;;;;;;;;8.00;8.00;;;;;12.73;53.91;98744.91;5079420;27;46275;-63
2024/03/26 01:20:08;;;;;;;;;5.50;5.00;;;;;12.74;53.82;98750.16;5079269;28;45317;-63
2024/03/26 01:22:33;;;;;;;;;7.00;6.50;;;;;12.83;54.18;98762.03;5079680;28;45421;-63
2024/03/26 01:24:59;;;;;;;;;8.00;5.75;;;;;12.71;54.30;98746.84;5079349;27;45268;-63
2024/03/26 01:27:24;;;;;;;;;6.75;6.00;;;;;12.88;54.81;98759.00;5079017;27;45311;-63
2024/03/26 01:29:49;;;;;;;;;7.75;7.75;;;;;12.71;54.65;98744.16;5079337;28;47508;-63
2024/03/26 01:32:15;;;;;;;;;7.00;6.50;;;;;12.64;55.43;98724.19;5079685;28;45413;-63
2024/03/26 01:34:40;;;;;;;;;6.25;6.25;;;;;12.73;55.44;98742.22;5079341;27;45583;-63
2024/03/26 01:37:05;;;;;;;;;6.75;6.50;;;;;12.76;55.81;98747.38;5077421;28;48011;-62
2024/03/26 01:39:31;;;;;;;;;6.00;6.00;;;;;12.89;56.43;98766.91;5078309;27;45402;-63
2024/03/26 01:41:56;;;;;;;;;8.25;7.25;;;;;12.71;56.37;98730.78;5079569;27;45555;-62
2024/03/26 01:44:21;;;;;;;;;3.00;3.00;;;;;12.62;56.91;98728.81;5079073;27;45587;-63
2024/03/26 01:46:47;;;;;;;;;5.50;5.00;;;;;12.62;57.10;98723.44;5079009;28;46028;-63
2024/03/26 01:49:15;;;;;;;;;8.25;7.00;;;;;12.64;57.86;98735.72;5079264;27;45309;-62
2024/03/26 01:51:42;;;;;;;;;7.75;5.75;;;;;12.83;58.02;98759.34;5079245;27;45391;-63
2024/03/26 01:54:08;;;;;;;;;4.00;4.00;;;;;12.66;58.00;98732.94;5094851;27;45541;-62
2024/03/26 01:56:33;;;;;;;;;8.50;6.75;;;;;12.62;58.07;98731.47;5078812;27;46309;-63
2024/03/26 01:59:00;;;;;;;;;6.75;6.75;;;;;12.56;58.81;98720.25;5078878;28;45318;-62
2024/03/26 02:01:27;;;;;;;;;6.00;6.00;;;;;12.44;58.69;98702.41;5079200;27;45646;-62
2024/03/26 02:03:55;;;;;;;;;7.25;5.00;;;;;12.74;58.88;98751.97;5077588;28;45917;-62
2024/03/26 02:06:21;;;;;;;;;10.50;6.50;;;;;12.63;59.38;98738.53;5078898;28;46179;-62
2024/03/26 02:08:47;;;;;;;;;6.50;5.00;;;;;12.51;59.20;98713.50;5078828;27;45715;-62
2024/03/26 02:11:13;;;;;;;;;8.00;7.00;;;;;12.44;59.31;98701.56;5079181;27;45365;-62
2024/03/26 02:13:38;;;;;;;;;5.75;5.75;;;;;12.58;59.49;98723.66;5077205;28;45253;-63
2024/03/26 02:16:04;;;;;;;;;5.75;5.75;;;;;12.73;59.66;98755.63;5077302;28;46915;-63
2024/03/26 02:18:29;;;;;;;;;8.00;5.00;;;;;12.59;60.27;98724.50;5078635;27;45349;-62
2024/03/26 02:20:55;;;;;;;;;6.75;6.00;;;;;12.48;60.35;98703.03;5079104;28;45620;-62
2024/03/26 02:23:23;;;;;;;;;8.00;7.00;;;;;12.71;61.10;98733.47;5078744;27;45521;-62
2024/03/26 02:25:48;;;;;;;;;7.25;5.00;;;;;12.55;61.08;98707.81;5078574;27;46517;-63
2024/03/26 02:28:14;;;;;;;;;5.00;5.00;;;;;12.62;61.06;98720.78;5078227;27;45401;-62
2024/03/26 02:30:40;;;;;;;;;5.75;5.75;;;;;12.51;60.92;98703.69;5078979;27;45709;-63
2024/03/26 02:33:06;;;;;;;;;6.00;6.00;;;;;12.57;60.73;98707.72;5078614;27;45461;-62
2024/03/26 02:35:31;;;;;;;;;7.50;6.00;;;;;12.47;61.49;98695.97;5078686;28;45443;-62
2024/03/26 02:37:57;;;;;;;;;6.00;5.00;;;;;12.68;61.76;98726.53;5094089;27;45469;-62
2024/03/26 02:40:23;;;;;;;;;5.00;4.00;;;;;12.53;61.97;98701.75;5094311;27;45357;-62
2024/03/26 02:42:49;;;;;;;;;9.00;6.50;;;;;12.69;62.33;98722.03;5078191;27;45319;-62
2024/03/26 02:45:15;;;;;;;;;6.00;6.00;;;;;12.56;61.91;98698.84;5078487;28;45623;-63
2024/03/26 02:47:41;;;;;;;;;4.75;4.25;;;;;12.65;62.39;98708.00;5078156;27;45389;-63
2024/03/26 02:50:07;;;;;;;;;6.50;6.00;;;;;12.51;62.51;98684.94;5077365;28;45366;-62
2024/03/26 02:52:33;;;;;;;;;6.25;6.25;;;;;12.58;62.03;98691.56;5081339;27;45521;-62
2024/03/26 02:54:58;;;;;;;;;5.00;5.00;;;;;12.56;62.41;98681.91;5081973;28;46348;-62
2024/03/26 02:57:24;;;;;;;;;8.25;6.50;;;;;12.53;62.38;98674.09;5081338;27;45361;-62
2024/03/26 02:59:49;;;;;;;;;6.00;6.00;;;;;12.54;62.47;98675.81;5082164;27;45409;-62
2024/03/26 03:02:14;;;;;;;;;7.00;6.25;;;;;12.72;62.31;98703.06;5081763;28;45547;-63
2024/03/26 03:04:40;;;;;;;;;7.50;4.50;;;;;12.65;62.55;98685.75;5081745;27;45432;-62
2024/03/26 03:07:05;;;;;;;;;8.00;7.00;;;;;12.55;62.42;98670.34;5081730;27;45306;-62
2024/03/26 03:09:30;;;;;;;;;4.75;4.75;;;;;12.64;63.05;98678.69;5081836;28;45260;-63
2024/03/26 03:11:56;;;;;;;;;8.00;7.00;;;;;12.58;62.38;98674.66;5081604;27;45535;-63
2024/03/26 03:14:21;;;;;;;;;10.00;9.25;;;;;12.50;62.71;98664.50;5081367;27;45327;-62
2024/03/26 03:16:46;;;;;;;;;6.75;6.75;;;;;12.52;63.07;98664.38;5081306;27;45608;-62
2024/03/26 03:19:11;;;;;;;;;6.50;6.50;;;;;12.54;62.87;98667.78;5081608;28;45400;-62
2024/03/26 03:21:37;;;;;;;;;7.75;7.75;;;;;12.47;63.25;98670.06;5081477;27;45330;-62
2024/03/26 03:24:02;;;;;;;;;6.00;3.75;;;;;12.44;62.76;98662.25;5081303;28;45428;-62
2024/03/26 03:26:28;;;;;;;;;9.00;5.75;;;;;12.45;63.29;98665.81;5081173;28;45555;-63
2024/03/26 03:28:53;;;;;;;;;8.75;7.50;;;;;12.44;62.80;98667.59;5081313;27;45272;-62
2024/03/26 03:31:18;;;;;;;;;5.00;5.00;;;;;12.48;62.87;98674.47;5079895;28;45535;-62
2024/03/26 03:33:43;;;;;;;;;2.75;2.75;;;;;12.45;62.97;98660.47;5081210;28;46248;-62
2024/03/26 03:36:09;;;;;;;;;6.50;6.50;;;;;12.50;63.54;98664.50;5079835;28;45450;-62
2024/03/26 03:38:34;;;;;;;;;6.25;6.25;;;;;12.65;63.39;98691.94;5081181;28;45484;-63
2024/03/26 03:40:59;;;;;;;;;7.00;7.00;;;;;12.47;63.63;98667.38;5081229;27;45314;-63
2024/03/26 03:43:25;;;;;;;;;8.75;7.50;;;;;12.41;63.65;98660.69;5079520;28;48034;-62
2024/03/26 03:45:50;;;;;;;;;7.75;7.75;;;;;12.42;63.78;98658.84;5080886;27;45528;-62
2024/03/26 03:48:16;;;;;;;;;5.75;4.25;;;;;12.41;63.66;98667.84;5080023;28;45478;-63
2024/03/26 03:50:41;;;;;;;;;8.75;8.00;;;;;12.62;63.54;98702.03;5080978;28;45405;-62
2024/03/26 03:53:06;;;;;;;;;7.25;7.25;;;;;12.36;63.54;98668.19;5081006;27;45404;-62
2024/03/26 03:55:32;;;;;;;;;7.25;7.25;;;;;12.50;63.28;98695.75;5079441;28;45399;-62
2024/03/26 03:57:57;;;;;;;;;7.25;6.75;;;;;12.38;63.55;98687.66;5080890;27;46115;-62
2024/03/26 04:00:22;;;;;;;;;7.75;6.75;;;;;12.53;63.58;98700.84;5080919;27;45476;-62
2024/03/26 04:02:48;;;;;;;;;9.00;7.00;;;;;12.53;63.75;98704.41;5080055;27;46245;-62
2024/03/26 04:05:13;;;;;;;;;8.25;7.25;;;;;12.36;64.08;98665.50;5080615;27;45463;-62
2024/03/26 04:07:39;;;;;;;;;4.50;4.50;;;;;12.34;63.67;98664.75;5095954;27;45465;-63
2024/03/26 04:10:05;;;;;;;;;7.00;7.00;;;;;12.36;63.95;98659.28;5080709;27;45444;-62
2024/03/26 04:12:30;;;;;;;;;6.75;6.00;;;;;12.37;64.06;98661.84;5079348;28;45574;-62
2024/03/26 04:14:55;;;;;;;;;7.00;7.00;;;;;12.52;63.93;98688.47;5079279;28;45388;-63
2024/03/26 04:17:21;;;;;;;;;6.00;5.00;;;;;12.55;64.05;98693.59;5080625;27;45374;-62
2024/03/26 04:19:46;;;;;;;;;5.00;5.00;;;;;12.50;64.51;98685.91;5080405;27;45470;-63
2024/03/26 04:22:11;;;;;;;;;7.00;7.00;;;;;12.38;64.36;98670.75;5080616;28;45357;-62
2024/03/26 04:24:37;;;;;;;;;7.00;5.75;;;;;12.54;64.32;98695.41;5078958;28;45362;-62
2024/03/26 04:27:03;;;;;;;;;7.75;5.50;;;;;12.39;64.67;98675.97;5079133;28;45506;-62
2024/03/26 04:29:29;;;;;;;;;8.25;5.50;;;;;12.35;65.01;98673.66;5092668;27;45907;-62
2024/03/26 04:31:54;;;;;;;;;8.00;7.00;;;;;12.43;64.93;98687.31;5080400;28;46114;-62
2024/03/26 04:34:20;;;;;;;;;6.25;6.00;;;;;12.39;65.48;98669.78;5078908;28;45649;-62
2024/03/26 04:36:45;;;;;;;;;4.50;4.50;;;;;12.39;65.69;98673.28;5080360;27;45534;-63
2024/03/26 04:39:11;;;;;;;;;6.00;5.25;;;;;12.39;66.00;98673.28;5080266;27;45453;-62
2024/03/26 04:41:37;;;;;;;;;5.75;5.00;;;;;12.40;66.19;98672.34;5080057;27;46459;-62
2024/03/26 04:44:02;;;;;;;;;5.75;4.25;;;;;12.27;66.60;98643.91;5079929;27;45585;-62
2024/03/26 04:46:28;;;;;;;;;4.75;2.00;;;;;12.40;66.77;98671.50;5078914;28;45876;-62
2024/03/26 04:48:54;;;;;;;;;7.00;6.00;;;;;12.49;66.86;98669.94;5080096;27;45461;-62
2024/03/26 04:51:20;;;;;;;;;7.75;6.50;;;;;12.32;67.55;98647.13;5080002;27;45790;-63
2024/03/26 04:53:46;;;;;;;;;3.00;3.00;;;;;12.40;67.29;98666.97;5080089;28;45544;-63
2024/03/26 04:56:11;;;;;;;;;10.50;7.00;;;;;12.31;67.59;98642.72;5080052;27;45500;-62
2024/03/26 04:58:36;;;;;;;;;6.25;5.25;;;;;12.33;67.41;98651.47;5078397;28;45793;-63
2024/03/26 05:01:03;;;;;;;;;3.50;3.00;;;;;12.15;67.72;98622.44;5079724;27;45302;-62
2024/03/26 05:03:28;;;;;;;;;7.25;7.25;;;;;12.31;67.93;98648.94;5080004;27;45770;-62
2024/03/26 05:05:54;;;;;;;;;5.25;5.00;;;;;12.28;68.01;98640.25;5079739;27;45466;-62
2024/03/26 05:08:19;;;;;;;;;6.00;6.00;;;;;12.34;67.98;98647.84;5079923;28;45494;-62
2024/03/26 05:10:45;;;;;;;;;3.75;3.75;;;;;12.49;68.42;98680.66;5078252;28;46966;-62
2024/03/26 05:13:11;;;;;;;;;6.50;6.50;;;;;12.28;68.23;98646.50;5079472;27;45448;-63
2024/03/26 05:15:36;;;;;;;;;6.00;5.00;;;;;12.31;68.75;98654.28;5078512;27;45907;-63
2024/03/26 05:18:01;;;;;;;;;7.00;7.00;;;;;12.41;69.01;98670.50;5079396;27;45331;-63
2024/03/26 05:20:27;;;;;;;;;5.50;5.50;;;;;12.41;68.91;98670.50;5079597;27;45387;-62
2024/03/26 05:22:52;;;;;;;;;5.00;5.00;;;;;12.22;69.34;98653.13;5079596;28;45636;-62
2024/03/26 05:25:17;;;;;;;;;5.00;5.00;;;;;12.23;69.76;98652.16;5079508;27;45402;-62
2024/03/26 05:27:43;;;;;;;;;4.75;4.75;;;;;12.20;69.55;98659.56;5079168;28;45485;-62
2024/03/26 05:30:09;;;;;;;;;6.00;6.00;;;;;12.20;69.68;98654.22;5079186;28;46727;-63
2024/03/26 05:32:34;;;;;;;;;7.75;7.25;;;;;12.26;69.87;98663.59;5079469;27;45571;-62
2024/03/26 05:35:01;;;;;;;;;5.75;5.75;;;;;12.14;70.03;98643.94;5079225;28;46093;-62
2024/03/26 05:37:27;;;;;;;;;7.00;6.50;;;;;12.14;70.20;98650.16;5079243;28;45314;-62
2024/03/26 05:39:52;;;;;;;;;7.00;6.00;;;;;12.13;70.71;98635.09;5079122;28;45265;-63
2024/03/26 05:42:17;;;;;;;;;7.50;6.50;;;;;12.12;70.66;98641.38;5079105;28;45350;-62
2024/03/26 05:44:42;;;;;;;;;4.25;4.25;;;;;12.21;71.19;98648.75;5079263;28;45350;-62
2024/03/26 05:47:08;;;;;;;;;5.75;5.75;;;;;12.22;71.15;98650.44;5078974;28;46349;-63
2024/03/26 05:49:33;;;;;;;;;7.00;6.00;;;;;12.17;71.51;98635.72;5078769;28;51166;-62
2024/03/26 05:51:58;;;;;;;;;7.75;6.00;;;;;12.21;71.74;98634.50;5077194;28;50650;-63
2024/03/26 05:54:24;;;;;;;;;8.25;8.25;;;;;12.19;72.05;98626.59;5079075;28;45514;-62
2024/03/26 05:56:49;;;;;;;;;7.00;6.00;;;;;12.35;72.30;98657.59;5079141;27;45497;-62
2024/03/26 05:59:14;;;;;;;;;8.75;6.00;;;;;12.34;72.50;98650.53;5078621;28;45402;-62
2024/03/26 06:01:40;;;;;;;;;5.75;5.75;;;;;12.27;72.88;98643.91;5079026;28;45790;-62
2024/03/26 06:04:05;;;;;;;;;5.75;5.00;;;;;12.42;72.86;98658.84;5078998;28;45679;-62
2024/03/26 06:06:30;;;;;;;;;6.50;6.50;;;;;12.26;73.31;98628.81;5079050;27;45440;-62
2024/03/26 06:08:56;;;;;;;;;7.50;6.00;;;;;12.44;73.45;98659.59;5078769;28;45470;-62
2024/03/26 06:11:21;;;;;;;;;5.50;5.50;;;;;12.46;73.58;98660.31;5079043;27;45375;-63
2024/03/26 06:13:46;;;;;;;;;5.75;4.75;;;;;12.34;73.90;98634.47;5078718;27;45377;-63
2024/03/26 06:16:12;;;;;;;;;7.00;7.00;;;;;12.29;74.28;98631.28;5078824;27;45410;-62
2024/03/26 06:18:38;;;;;;;;;4.25;4.25;;;;;12.45;73.83;98655.09;5078501;28;46813;-62
2024/03/26 06:21:04;;;;;;;;;6.50;6.00;;;;;12.47;74.54;98656.69;5077572;28;46083;-62
2024/03/26 06:23:30;;;;;;;;;6.00;6.00;;;;;12.43;74.58;98644.50;5078835;27;45449;-63
2024/03/26 06:25:55;;;;;;;;;5.00;5.00;;;;;12.36;74.68;98637.88;5079508;28;45371;-62
2024/03/26 06:28:21;;;;;;;;;5.00;5.00;;;;;12.38;74.95;98642.16;5081758;28;45345;-62
2024/03/26 06:30:46;;;;;;;;;6.50;5.00;;;;;12.34;75.44;98626.44;5082357;27;45410;-62
2024/03/26 06:33:12;;;;;;;;;7.50;6.00;;;;;12.28;75.22;98614.38;5082154;27;45342;-62
2024/03/26 06:35:38;;;;;;;;;8.50;8.00;;;;;12.55;75.47;98659.66;5082353;27;45958;-62
2024/03/26 06:38:05;;;;;;;;;5.25;5.25;;;;;12.50;76.02;98645.75;5081852;27;46548;-62
2024/03/26 06:40:37;;;;;;;;;5.75;5.75;;;;;12.59;75.97;98660.28;5082258;27;45433;-62
2024/03/26 06:43:03;;;;;;;;;6.75;6.75;;;;;12.44;76.23;98631.97;5081910;27;45368;-62
2024/03/26 06:45:30;;;;;;;;;5.75;5.75;;;;;12.39;76.35;98627.81;5081959;27;45273;-62
2024/03/26 06:47:55;;;;;;;;;4.00;4.00;;;;;12.43;77.00;98628.47;5081796;27;45653;-62
2024/03/26 06:50:21;;;;;;;;;8.25;6.50;;;;;12.41;77.10;98617.88;5081963;27;45399;-62
2024/03/26 06:52:47;;;;;;;;;5.00;4.50;;;;;12.40;77.24;98623.31;5081751;28;45370;-62
2024/03/26 06:55:13;;;;;;;;;5.00;5.00;;;;;12.39;77.27;98617.09;5081906;27;45389;-62
2024/03/26 06:57:39;;;;;;;;;5.00;5.00;;;;;12.36;77.57;98603.97;5081421;27;45473;-62
2024/03/26 07:00:06;;;;;;;;;6.25;6.25;;;;;12.44;77.70;98616.78;5080416;28;45507;-62
2024/03/26 07:02:32;;;;;;;;;8.75;7.00;;;;;12.49;77.77;98621.78;5081764;27;45338;-62
2024/03/26 07:04:57;;;;;;;;;6.75;5.00;;;;;12.59;78.38;98631.69;5081778;27;45330;-62
2024/03/26 07:07:22;;;;;;;;;5.75;5.75;;;;;12.42;78.78;98603.50;5081496;27;45347;-62
2024/03/26 07:09:48;;;;;;;;;8.25;5.50;;;;;12.42;78.50;98589.28;5080279;28;46494;-63
2024/03/26 07:12:13;;;;;;;;;6.00;4.25;;;;;12.42;78.74;98598.16;5081345;27;45483;-62
2024/03/26 07:14:39;;;;;;;;;6.50;5.25;;;;;12.45;78.94;98606.94;5081619;27;45347;-63
2024/03/26 07:17:05;;;;;;;;;6.75;5.75;;;;;12.51;79.18;98607.34;5079902;28;47565;-62
2024/03/26 07:19:31;;;;;;;;;5.00;5.00;;;;;12.52;79.88;98609.03;5079994;28;45764;-63
2024/03/26 07:21:56;;;;;;;;;8.75;7.25;;;;;12.68;79.33;98626.63;5081608;28;45323;-63
2024/03/26 07:24:21;;;;;;;;;5.75;5.50;;;;;12.53;79.77;98596.50;5081175;27;45550;-64
2024/03/26 07:26:47;;;;;;;;;7.75;6.00;;;;;12.70;79.63;98635.41;5081064;27;46494;-63
2024/03/26 07:29:12;;;;;;;;;8.75;6.00;;;;;12.54;79.74;98604.41;5080928;28;51264;-63
2024/03/26 07:31:37;;;;;;;;;8.00;6.50;;;;;12.47;79.92;98591.63;5081248;28;45440;-63
2024/03/26 07:34:03;;;;;;;;;8.25;6.50;;;;;12.49;79.42;98590.53;5079950;28;45847;-63
2024/03/26 07:36:28;;;;;;;;;6.75;5.50;;;;;12.56;79.91;98594.47;5080997;27;45436;-62
2024/03/26 07:38:53;;;;;;;;;7.50;5.75;;;;;12.56;79.93;98602.50;5080049;28;45429;-63
2024/03/26 07:41:19;;;;;;;;;5.00;2.50;;;;;12.58;80.50;98597.03;5081264;28;45417;-62
2024/03/26 07:43:44;;;;;;;;;8.50;7.00;;;;;12.50;80.38;98592.25;5080929;28;45695;-62
2024/03/26 07:46:09;;;;;;;;;5.00;5.00;;;;;12.61;80.68;98604.81;5080785;28;46533;-63
2024/03/26 07:48:35;;;;;;;;;7.75;7.75;;;;;12.74;80.70;98623.50;5081090;27;45472;-62
2024/03/26 07:51:04;;;;;;;;;7.00;5.50;;;;;12.59;80.61;98604.06;5080883;28;45334;-63
2024/03/26 07:53:29;;;;;;;;;8.00;8.00;;;;;12.60;80.89;98598.59;5080935;27;45543;-63
2024/03/26 07:55:54;;;;;;;;;8.00;5.75;;;;;12.54;80.91;98593.72;5080610;27;45361;-63
2024/03/26 07:58:20;;;;;;;;;7.25;6.50;;;;;12.60;80.89;98597.75;5080693;27;45247;-63
2024/03/26 08:00:45;;;;;;;;;7.75;7.00;;;;;12.55;81.08;98594.59;5080778;28;45380;-63
2024/03/26 08:03:10;;;;;;;;;0.00;0.00;;;;;12.52;80.99;98582.28;5081015;27;45430;-63
2024/03/26 08:05:36;;;;;;;;;6.25;6.25;;;;;12.64;81.11;98596.56;5079135;28;46325;-62
2024/03/26 08:08:01;;;;;;;;;6.75;5.75;;;;;12.42;81.40;98563.38;5080860;28;45429;-62
2024/03/26 08:10:26;;;;;;;;;7.00;7.00;;;;;12.58;81.62;98581.81;5080730;28;45428;-62
2024/03/26 08:12:51;;;;;;;;;8.00;7.00;;;;;12.54;81.39;98580.31;5080585;27;45296;-62
2024/03/26 08:15:17;;;;;;;;;8.50;7.75;;;;;12.56;81.83;98574.84;5080355;27;46446;-63
2024/03/26 08:17:43;;;;;;;;;6.50;6.00;;;;;12.58;81.86;98579.16;5080589;28;45408;-62
2024/03/26 08:20:09;;;;;;;;;8.25;6.25;;;;;12.81;82.01;98616.69;5080561;27;45810;-62
2024/03/26 08:22:37;;;;;;;;;7.25;6.50;;;;;12.72;82.02;98596.81;5080654;28;45369;-62
2024/03/26 08:25:03;;;;;;;;;5.00;5.00;;;;;12.75;82.11;98595.75;5080146;27;46482;-62
2024/03/26 08:27:28;;;;;;;;;8.50;6.75;;;;;12.68;82.63;98586.47;5080144;27;45348;-62
2024/03/26 08:29:53;;;;;;;;;11.25;9.00;;;;;12.74;82.42;98594.03;5079039;28;45491;-62
2024/03/26 08:32:19;;;;;;;;;6.25;6.25;;;;;12.71;82.67;98586.22;5084796;27;45544;-63
2024/03/26 08:34:44;;;;;;;;;8.00;8.00;;;;;12.58;82.85;98562.25;5077845;28;45359;-63
2024/03/26 08:37:10;;;;;;;;;5.50;5.50;;;;;12.80;83.28;98593.59;5080177;27;45256;-63
2024/03/26 08:39:35;;;;;;;;;7.50;6.50;;;;;12.57;83.10;98553.34;5080262;28;45326;-63
2024/03/26 08:42:01;;;;;;;;;9.00;7.50;;;;;12.81;83.40;98594.44;5080126;27;45979;-62
2024/03/26 08:44:26;;;;;;;;;4.75;4.75;;;;;12.75;83.66;98583.22;5078797;28;47061;-62
2024/03/26 08:46:51;;;;;;;;;6.50;6.50;;;;;12.62;83.95;98561.03;5095647;27;46072;-62
2024/03/26 08:49:16;;;;;;;;;4.75;4.75;;;;;12.63;83.74;98553.84;5079806;27;45378;-63
2024/03/26 08:51:42;;;;;;;;;7.50;6.00;;;;;12.66;83.86;98553.59;5079929;28;45568;-62
2024/03/26 08:54:07;;;;;;;;;5.75;5.75;;;;;12.90;83.75;98583.03;5079955;27;47002;-63
2024/03/26 08:56:33;;;;;;;;;2.75;2.00;;;;;12.75;83.81;98561.81;5079930;27;45457;-62
2024/03/26 08:58:58;;;;;;;;;6.75;6.50;;;;;12.76;84.12;98554.63;5078499;28;45537;-62
2024/03/26 09:01:24;;;;;;;;;7.75;7.75;;;;;12.74;83.91;98554.72;5079890;27;45536;-62
2024/03/26 09:03:49;;;;;;;;;5.75;5.75;;;;;12.85;83.98;98561.13;5079801;27;45416;-62
2024/03/26 09:06:15;;;;;;;;;5.25;3.75;;;;;12.79;83.95;98559.75;5078578;28;45374;-62
2024/03/26 09:08:40;;;;;;;;;3.00;2.25;;;;;12.89;84.47;98560.72;5092216;27;45402;-62
2024/03/26 09:11:06;;;;;;;;;4.25;4.25;;;;;12.73;84.01;98538.78;5070228;28;45244;-62
2024/03/26 09:13:31;;;;;;;;;6.00;5.00;;;;;12.73;84.05;98539.66;5079359;27;45489;-62
2024/03/26 09:15:57;;;;;;;;;5.00;4.00;;;;;12.76;84.18;98534.06;5079505;27;45411;-62
2024/03/26 09:18:22;;;;;;;;;4.00;2.50;;;;;12.76;84.20;98549.25;5078305;28;45280;-62
2024/03/26 09:20:48;;;;;;;;;6.00;3.00;;;;;12.91;84.18;98563.31;5079670;27;45659;-62
2024/03/26 09:23:13;;;;;;;;;4.00;4.00;;;;;12.72;84.44;98537.09;5079440;27;46588;-63
2024/03/26 09:25:39;;;;;;;;;3.75;3.75;;;;;12.78;84.20;98545.50;5079347;27;45520;-63
2024/03/26 09:28:04;;;;;;;;;4.00;2.00;;;;;12.86;84.28;98547.56;5079186;27;45543;-62
2024/03/26 09:30:30;;;;;;;;;5.00;4.00;;;;;12.74;84.57;98524.44;5079617;28;45313;-62
2024/03/26 09:32:56;;;;;;;;;4.00;4.00;;;;;12.76;84.17;98530.53;5077743;28;50588;-62
2024/03/26 09:35:21;;;;;;;;;2.50;2.50;;;;;12.78;84.47;98537.47;5084834;27;45473;-62
2024/03/26 09:37:47;;;;;;;;;3.25;3.00;;;;;12.93;84.28;98566.72;5076126;28;45454;-62
2024/03/26 09:40:13;;;;;;;;;6.00;3.00;;;;;12.94;84.45;98563.06;5079449;27;45522;-62
2024/03/26 09:42:40;;;;;;;;;5.25;4.25;;;;;12.70;84.93;98515.78;5078940;28;46391;-62
2024/03/26 09:45:08;;;;;;;;;3.25;3.00;;;;;12.76;84.64;98534.06;5079344;27;45341;-62
2024/03/26 09:47:34;;;;;;;;;6.75;3.25;;;;;12.67;84.62;98518.69;5079034;27;45284;-62
2024/03/26 09:50:05;;;;;;;;;3.25;3.25;;;;;12.73;84.44;98534.31;5079502;27;45318;-62
2024/03/26 09:52:34;;;;;;;;;4.00;4.00;;;;;12.70;84.74;98522.97;5078811;27;46702;-62
2024/03/26 09:55:05;;;;;;;;;3.50;3.00;;;;;12.70;85.04;98531.84;5079324;27;45534;-62
2024/03/26 09:57:31;;;;;;;;;3.00;3.00;;;;;12.83;85.06;98544.28;5078927;27;45267;-62
2024/03/26 09:59:56;;;;;;;;;7.00;4.75;;;;;12.77;84.92;98525.06;5079337;27;45322;-62
2024/03/26 10:02:23;;;;;;;;;3.00;3.00;;;;;12.83;85.04;98533.56;5081750;27;45480;-63
2024/03/26 10:04:49;;;;;;;;;2.50;2.50;;;;;12.71;84.98;98512.16;5082848;27;45852;-62
2024/03/26 10:07:14;;;;;;;;;3.25;3.25;;;;;12.69;84.69;98510.56;5098608;27;45522;-62
2024/03/26 10:09:40;;;;;;;;;3.00;3.00;;;;;12.67;85.25;98502.66;5082702;27;45445;-62
2024/03/26 10:12:11;;;;;;;;;4.50;4.00;;;;;12.68;84.61;98512.38;5080964;28;45513;-62
2024/03/26 10:14:37;;;;;;;;;3.75;3.00;;;;;12.64;84.85;98496.69;5082638;27;45314;-62
2024/03/26 10:17:03;;;;;;;;;4.50;4.00;;;;;12.70;84.70;98505.09;5082459;27;45330;-62
2024/03/26 10:19:29;;;;;;;;;2.75;2.75;;;;;12.76;84.91;98496.59;5081100;28;45534;-62
2024/03/26 10:21:54;;;;;;;;;4.75;3.50;;;;;12.83;85.19;98505.00;5082268;27;45543;-62
2024/03/26 10:24:20;;;;;;;;;5.00;5.00;;;;;12.67;85.53;98473.19;5082413;28;45241;-62
2024/03/26 10:26:47;;;;;;;;;6.25;4.00;;;;;12.90;85.16;98508.06;5082279;27;45585;-62
2024/03/26 10:29:12;;;;;;;;;3.50;3.50;;;;;12.66;85.42;98473.31;5082348;27;45412;-62
2024/03/26 10:31:39;;;;;;;;;3.00;3.00;;;;;12.70;85.18;98481.00;5081988;27;46481;-63
2024/03/26 10:34:04;;;;;;;;;2.50;2.50;;;;;12.74;84.95;98495.84;5082235;27;45574;-62
2024/03/26 10:36:31;;;;;;;;;4.25;3.50;;;;;12.72;85.26;98480.88;5082355;27;45471;-62
2024/03/26 10:38:58;;;;;;;;;4.00;4.00;;;;;12.73;85.31;98480.75;5082155;28;45267;-62
2024/03/26 10:41:32;;;;;;;;;5.00;4.25;;;;;12.70;85.35;98453.38;5082033;27;45370;-62
2024/03/26 10:43:58;;;;;;;;;4.75;4.25;;;;;12.77;85.13;98465.31;5081947;27;45573;-62
2024/03/26 10:46:24;;;;;;;;;3.00;3.00;;;;;12.75;85.17;98444.00;5082180;27;45449;-62
2024/03/26 10:48:50;;;;;;;;;4.25;4.00;;;;;12.96;84.82;98468.25;5082089;28;45337;-62
2024/03/26 10:51:15;;;;;;;;;3.25;3.25;;;;;12.83;85.09;98432.72;5080454;28;47212;-62
2024/03/26 10:53:42;;;;;;;;;4.25;4.00;;;;;12.83;84.65;98445.22;5081828;27;45396;-62
2024/03/26 10:56:10;;;;;;;;;3.00;3.00;;;;;12.77;84.82;98428.69;5081965;28;45479;-62
2024/03/26 10:58:36;;;;;;;;;3.75;3.00;;;;;12.86;84.99;98443.16;5080369;28;45631;-62
2024/03/26 11:01:03;;;;;;;;;4.00;4.00;;;;;12.80;85.19;98432.94;5081639;27;46417;-62
2024/03/26 11:03:29;;;;;;;;;4.25;3.25;;;;;12.86;85.52;98431.59;5080436;28;45472;-62
2024/03/26 11:05:57;;;;;;;;;5.50;3.00;;;;;12.91;85.31;98430.28;5081843;27;45483;-62
2024/03/26 11:08:23;;;;;;;;;4.00;4.00;;;;;12.83;85.48;98413.09;5081758;27;45464;-62
2024/03/26 11:11:04;;;;;;;;;3.00;3.00;;;;;12.88;85.43;98414.47;5080399;28;48200;-62
2024/03/26 11:13:37;;;;;;;;;3.00;3.00;;;;;12.91;85.33;98419.59;5081278;27;45482;-62
2024/03/26 11:16:05;;;;;;;;;3.75;2.75;;;;;13.05;85.17;98445.25;5080382;28;45446;-62
2024/03/26 11:18:35;;;;;;;;;2.25;2.25;;;;;13.00;85.18;98422.47;5081375;27;45440;-62
2024/03/26 11:21:08;;;;;;;;;4.00;3.00;;;;;13.11;85.30;98430.50;5081607;27;46385;-62
2024/03/26 11:23:35;;;;;;;;;2.00;2.00;;;;;12.93;85.50;98400.69;5081433;27;45496;-62
2024/03/26 11:26:01;;;;;;;;;4.00;3.25;;;;;13.00;85.43;98404.59;5081516;27;45393;-62
2024/03/26 11:28:28;;;;;;;;;3.00;3.00;;;;;13.05;85.54;98405.09;5081058;27;45492;-62